map of JED home
Great Circle Mapper logo
JED - Airport
Location
City:  Jeddah, Saudi Arabia
Name:King Abdulaziz International Airport
ICAO / IATA:OEJN / JED

Details
Type:Airport (Aerodrome, Airfield)
Use:Public/Civil, Military, International (customs port of entry)
Latitude:2140'52"N (21.681111)
Longitude:3909'20"E (39.155556)
Elevation:48 ft (15 m)
Variation:3.40E (WMM2015 magnetic declination)
0.06 annual change
Runways:3
Longest:13123 × 197 ft (4000 × 60 m), paved

Time
Time Zone:UTC+3
Local Time:

Weather
METAR:OEJN 101200Z 32010KT 9999 SCT040 26/13 Q1014 NOSIG
TAF:OEJN 092230Z 1000/1106 34006G16KT 7000 FEW040= TAF OEMA 092230Z 1000/1106 06008KT 7000 NSC
BECMG 1008/1010 24010G20KT
TEMPO 1008/1018 3000 BLDU/DU

Related Locations
Nearby:
Farthest:NTTX: 12323 mi / 19832 km
Mururoa Atoll, PF

Find:

   beyond  
but within

Other Information
Maps:
NOTAMs:
Links:
Sources:

  
flag of Saudi Arabia   

Sectional Chart

Flight Planning
at skyvector.com

Satellite Image

Google Maps Satellite view

 

Copyright © 2004-2016 Karl L. Swartz. All rights reserved.
The Great Circle Mapper name and logo are trademarks of the Great Circle Mapper.
All other trademarks mentioned herein belong to their respective owners.
Please see credits for attibutions and further copyright information.

  Follow gcmap on Facebook Follow gcmap on Twitter Follow gcmap on Google+ GCmap on LinkedIn

hCard Microformat

Geo Microformat